Time;durP1;ratioP1;P1;durP2;ratioP2;P2;SDS_P1;SDS_P2;PMS_P1;PMS_P2;Temp;Humidity;BMP_temperature;BMP_pressure;BME280_temperature;BME280_humidity;BME280_pressure;Samples;Min_cycle;Max_cycle;Signal;HPM_P1;HPM_P2
2023/09/08 00:00:47;;;;;;;7.70;5.38;;;;;;;23.27;60.71;98822.16;5125522;27;20074;-92
2023/09/08 00:03:13;;;;;;;7.28;5.05;;;;;;;23.10;61.33;98821.63;5127010;27;20047;-93
2023/09/08 00:05:39;;;;;;;6.15;4.47;;;;;;;23.14;61.30;98830.41;5127107;27;20043;-93
2023/09/08 00:08:05;;;;;;;7.97;4.78;;;;;;;23.29;60.93;98825.59;5125717;27;20047;-93
2023/09/08 00:10:31;;;;;;;7.07;4.50;;;;;;;23.09;61.72;98827.16;5127233;27;20027;-94
2023/09/08 00:12:57;;;;;;;7.03;4.63;;;;;;;22.98;61.06;98787.28;5126512;27;20058;-94
2023/09/08 00:15:24;;;;;;;7.07;4.82;;;;;;;22.99;61.32;98791.75;5124970;27;20050;-95
2023/09/08 00:17:50;;;;;;;5.93;4.72;;;;;;;22.89;61.04;98769.88;5126151;27;20073;-94
2023/09/08 00:20:16;;;;;;;10.63;5.65;;;;;;;22.93;62.23;98830.19;5125752;27;20023;-93
2023/09/08 00:22:42;;;;;;;9.20;4.97;;;;;;;23.06;61.86;98816.56;5125619;27;20085;-94
2023/09/08 00:25:08;;;;;;;7.93;4.90;;;;;;;22.77;61.79;98770.84;5127165;27;20111;-95
2023/09/08 00:27:34;;;;;;;7.22;4.95;;;;;;;22.71;61.85;98771.31;5128012;27;20055;-94
2023/09/08 00:30:01;;;;;;;9.82;4.93;;;;;;;23.12;62.18;98824.22;5128236;27;20043;-95
2023/09/08 00:32:29;;;;;;;7.13;4.47;;;;;;;23.16;61.75;98821.16;5129380;27;20043;-95
2023/09/08 00:34:55;;;;;;;7.97;4.80;;;;;;;23.16;60.87;98769.63;5127263;27;20046;-94
2023/09/08 00:37:21;;;;;;;6.35;4.60;;;;;;;23.04;61.10;98765.16;5127326;27;20047;-96
2023/09/08 00:39:47;;;;;;;9.35;6.03;;;;;;;22.87;63.24;98834.22;5127255;27;20467;-94
2023/09/08 00:42:13;;;;;;;7.90;5.18;;;;;;;22.12;64.20;98755.84;5126252;27;20073;-94
2023/09/08 00:44:39;;;;;;;7.10;4.82;;;;;;;22.62;64.06;98812.66;5127537;27;20039;-94
2023/09/08 00:47:05;;;;;;;6.20;4.45;;;;;;;22.82;63.19;98816.59;5127607;27;20064;-95
2023/09/08 00:49:32;;;;;;;7.75;4.78;;;;;;;22.71;63.46;98793.00;5127288;27;20049;-93
2023/09/08 00:51:59;;;;;;;6.95;5.05;;;;;;;22.74;62.64;98761.09;5127530;27;20063;-95
2023/09/08 00:54:25;;;;;;;6.18;4.60;;;;;;;23.20;61.72;98791.06;5126619;27;20047;-94
2023/09/08 00:56:55;;;;;;;6.53;4.60;;;;;;;23.11;61.94;98789.94;5126948;27;20074;-95
2023/09/08 00:59:21;;;;;;;6.70;4.90;;;;;;;23.24;62.44;98833.25;5124361;27;20062;-94
2023/09/08 01:01:47;;;;;;;6.40;5.07;;;;;;;23.03;63.22;98824.94;5127769;27;20031;-96
2023/09/08 01:04:13;;;;;;;7.30;4.75;;;;;;;22.59;63.33;98778.53;5126666;27;20200;-96
2023/09/08 01:06:41;;;;;;;10.63;5.20;;;;;;;22.49;63.67;98777.53;5126326;27;20035;-96
2023/09/08 01:09:07;;;;;;;5.38;4.53;;;;;;;22.25;64.39;98777.50;5125904;27;20096;-94
2023/09/08 01:11:34;;;;;;;6.93;4.90;;;;;;;22.19;64.81;98776.09;5126027;27;20142;-94
2023/09/08 01:14:00;;;;;;;6.55;5.18;;;;;;;22.10;65.27;98774.94;5124431;27;20526;-92
2023/09/08 01:16:25;;;;;;;7.03;4.85;;;;;;;22.47;64.49;98809.31;5125951;27;20133;-94
2023/09/08 01:18:52;;;;;;;7.68;5.03;;;;;;;22.27;65.38;98817.06;5125380;27;20099;-92
2023/09/08 01:21:52;;;;;;;9.65;5.60;;;;;;;21.94;66.49;98814.97;5126610;27;20035;-92
2023/09/08 01:24:38;;;;;;;11.40;5.47;;;;;;;21.51;67.14;98782.88;5124597;27;20049;-93
2023/09/08 01:27:07;;;;;;;8.45;5.30;;;;;;;21.43;68.41;98804.22;5123751;27;20043;-93
2023/09/08 01:29:37;;;;;;;7.07;4.93;;;;;;;21.58;67.92;98797.72;5125132;27;20043;-94
2023/09/08 01:32:04;;;;;;;7.40;5.22;;;;;;;21.28;68.42;98771.00;5127906;27;20043;-95
2023/09/08 01:34:30;;;;;;;7.85;5.45;;;;;;;22.01;67.29;98837.94;5126161;27;20495;-96
2023/09/08 01:36:56;;;;;;;6.55;5.07;;;;;;;21.96;66.26;98783.22;5125816;27;20396;-95
2023/09/08 01:39:22;;;;;;;7.22;5.15;;;;;;;21.89;66.53;98781.97;5126508;27;20038;-94
2023/09/08 01:41:48;;;;;;;7.47;5.63;;;;;;;22.03;66.26;98779.06;5126446;27;20368;-95
2023/09/08 01:44:16;;;;;;;8.68;4.93;;;;;;;21.87;66.65;98775.78;5125396;27;20161;-95
2023/09/08 01:46:42;;;;;;;6.70;4.53;;;;;;;22.25;66.78;98823.56;5125133;27;20063;-95
2023/09/08 01:49:08;;;;;;;7.55;4.93;;;;;;;21.81;67.83;98790.63;5125447;27;20047;-95
2023/09/08 01:51:34;;;;;;;6.57;4.80;;;;;;;22.16;67.18;98833.19;5126348;28;20130;-94
2023/09/08 01:54:01;;;;;;;8.45;5.30;;;;;;;21.69;68.11;98784.28;5126222;28;20046;-95
2023/09/08 01:56:27;;;;;;;7.72;4.88;;;;;;;21.84;68.53;98803.06;5124954;27;20072;-95
2023/09/08 01:58:52;;;;;;;8.05;4.70;;;;;;;22.28;67.67;98824.22;5125269;27;20516;-95
2023/09/08 02:01:20;;;;;;;10.07;5.60;;;;;;;21.83;67.48;98768.88;5125544;27;20038;-96
2023/09/08 02:03:46;;;;;;;8.20;5.78;;;;;;;21.33;69.96;98755.28;5124311;28;20043;-95
2023/09/08 02:06:12;;;;;;;7.43;5.72;;;;;;;21.36;70.19;98759.59;5125795;27;20044;-93
2023/09/08 02:08:37;;;;;;;12.27;6.00;;;;;;;21.71;70.34;98816.66;5125852;27;20043;-94
2023/09/08 02:11:03;;;;;;;6.80;4.53;;;;;;;21.84;68.56;98763.34;5125530;27;20040;-94
2023/09/08 02:13:29;;;;;;;6.07;4.55;;;;;;;22.06;68.02;98786.13;5125485;27;20051;-96
2023/09/08 02:15:55;;;;;;;6.60;5.10;;;;;;;21.72;69.11;98789.44;5126263;28;20034;-95
2023/09/08 02:18:24;;;;;;;7.68;4.68;;;;;;;21.88;69.38;98808.16;5124988;27;20047;-95
2023/09/08 02:20:50;;;;;;;8.40;4.82;;;;;;;21.87;68.36;98763.09;5125522;28;20047;-94
2023/09/08 02:23:16;;;;;;;9.07;5.32;;;;;;;22.24;67.07;98771.22;5125120;28;20040;-95
2023/09/08 02:25:42;;;;;;;8.45;5.25;;;;;;;22.21;67.04;98766.03;5125242;27;20046;-96
2023/09/08 02:28:08;;;;;;;7.53;5.53;;;;;;;21.99;68.69;98771.28;5125969;27;20046;-96
2023/09/08 02:30:34;;;;;;;9.38;4.65;;;;;;;21.77;69.14;98762.03;5126222;27;20035;-95
2023/09/08 02:33:00;;;;;;;7.70;5.10;;;;;;;22.02;68.27;98762.97;5125596;27;20043;-96
2023/09/08 02:35:27;;;;;;;8.23;5.03;;;;;;;21.76;68.25;98751.34;5124871;28;20043;-94
2023/09/08 02:37:54;;;;;;;7.90;5.28;;;;;;;22.20;67.03;98760.72;5123868;27;20034;-95
2023/09/08 02:40:20;;;;;;;8.23;4.88;;;;;;;22.60;65.97;98796.53;5125192;27;20134;-95
2023/09/08 02:42:46;;;;;;;8.32;5.55;;;;;;;21.88;68.79;98772.09;5123239;27;20040;-96
2023/09/08 02:45:12;;;;;;;7.72;5.65;;;;;;;22.05;68.89;98782.53;5126464;27;20147;-94
2023/09/08 02:47:38;;;;;;;7.50;5.22;;;;;;;21.99;70.33;98814.63;5128270;27;20043;-96
2023/09/08 02:50:05;;;;;;;9.85;5.35;;;;;;;21.54;70.50;98742.09;5129001;27;20043;-96
2023/09/08 02:52:32;;;;;;;7.07;4.65;;;;;;;21.96;70.51;98804.88;5128688;27;20021;-95
2023/09/08 02:54:58;;;;;;;6.70;4.85;;;;;;;21.79;70.55;98760.09;5130597;27;20154;-95
2023/09/08 02:57:24;;;;;;;6.32;5.13;;;;;;;21.89;70.21;98753.03;5128559;27;20138;-95
2023/09/08 02:59:51;;;;;;;7.47;5.20;;;;;;;21.93;69.91;98762.66;5129043;27;20062;-95
2023/09/08 03:02:17;;;;;;;9.35;4.72;;;;;;;22.43;68.31;98764.44;5147054;27;20119;-94
2023/09/08 03:04:43;;;;;;;8.95;6.28;;;;;;;22.38;69.12;98774.75;5129569;27;20339;-95
2023/09/08 03:07:09;;;;;;;7.10;5.40;;;;;;;22.53;68.50;98777.19;5129051;27;20054;-95
2023/09/08 03:09:36;;;;;;;5.90;4.93;;;;;;;22.59;67.88;98747.88;5128504;27;20114;-95
2023/09/08 03:12:03;;;;;;;8.77;6.25;;;;;;;22.56;68.45;98792.34;5129816;27;20039;-96
2023/09/08 03:14:29;;;;;;;8.70;5.15;;;;;;;22.75;68.48;98806.22;5127599;27;20088;-94
2023/09/08 03:16:55;;;;;;;8.88;5.82;;;;;;;22.49;67.93;98745.88;5128949;27;20019;-95
2023/09/08 03:19:21;;;;;;;8.25;5.10;;;;;;;22.44;69.56;98809.50;5128984;27;20142;-95
2023/09/08 03:21:50;;;;;;;8.75;5.55;;;;;;;22.32;69.34;98778.81;5128756;27;20492;-96
2023/09/08 03:24:16;;;;;;;7.80;5.32;;;;;;;22.44;68.90;98764.31;5128198;27;20040;-94
2023/09/08 03:26:43;;;;;;;8.23;5.10;;;;;;;22.31;69.21;98764.38;5130849;27;20114;-94
2023/09/08 03:29:09;;;;;;;11.68;5.72;;;;;;;22.24;69.25;98743.28;5129107;27;20057;-96
2023/09/08 03:31:35;;;;;;;8.93;5.88;;;;;;;22.25;70.08;98770.28;5128913;27;20150;-95
2023/09/08 03:34:01;;;;;;;8.40;5.90;;;;;;;21.91;70.92;98732.13;5128675;27;20100;-96
2023/09/08 03:36:27;;;;;;;8.85;5.65;;;;;;;21.91;71.02;98750.22;5128490;27;20050;-95
2023/09/08 03:38:53;;;;;;;7.75;5.50;;;;;;;21.74;71.74;98746.91;5130627;27;20055;-94
2023/09/08 03:41:19;;;;;;;7.05;5.25;;;;;;;21.68;71.67;98743.78;5128525;27;20035;-95
2023/09/08 03:43:49;;;;;;;10.88;5.90;;;;;;;21.83;72.13;98774.28;5128864;27;20047;-96
2023/09/08 03:46:15;;;;;;;9.55;5.88;;;;;;;22.02;71.61;98762.97;5128933;27;20063;-95
2023/09/08 03:48:41;;;;;;;8.63;5.93;;;;;;;22.34;71.46;98791.25;5127166;27;20070;-96
2023/09/08 03:51:07;;;;;;;8.43;6.25;;;;;;;21.69;72.00;98735.56;5128957;27;20049;-95
2023/09/08 03:53:32;;;;;;;10.43;6.00;;;;;;;21.72;73.17;98778.63;5127671;27;20075;-94
2023/09/08 03:55:58;;;;;;;10.10;6.07;;;;;;;22.03;72.77;98786.34;5106751;28;20099;-95
2023/09/08 03:58:24;;;;;;;8.93;5.68;;;;;;;21.99;72.47;98774.00;5109279;28;20028;-95
2023/09/08 04:00:52;;;;;;;9.23;6.13;;;;;;;22.10;72.33;98812.88;5108315;28;20044;-95
2023/09/08 04:03:18;;;;;;;8.23;5.82;;;;;;;21.86;71.92;98731.63;5107543;28;20051;-96
2023/09/08 04:05:44;;;;;;;9.23;6.03;;;;;;;21.75;71.81;98745.06;5106856;28;20028;-95
2023/09/08 04:08:10;;;;;;;9.18;6.60;;;;;;;22.41;71.21;98797.06;5108538;28;20075;-95
2023/09/08 04:10:36;;;;;;;9.05;6.15;;;;;;;22.27;71.27;98771.03;5107142;28;20052;-95
2023/09/08 04:13:02;;;;;;;10.98;5.40;;;;;;;21.89;72.90;98776.53;5107764;28;20139;-94
2023/09/08 04:15:28;;;;;;;8.82;5.75;;;;;;;21.81;72.56;98771.66;5108553;28;20051;-95
2023/09/08 04:17:57;;;;;;;7.50;5.35;;;;;;;22.26;71.09;98761.16;5108596;28;20140;-96
2023/09/08 04:20:23;;;;;;;11.13;6.75;;;;;;;22.24;71.10;98801.03;5107617;28;20044;-95
2023/09/08 04:22:49;;;;;;;9.70;6.30;;;;;;;22.13;70.31;98734.09;5108407;28;20040;-95
2023/09/08 04:25:15;;;;;;;10.05;6.97;;;;;;;22.19;70.25;98729.22;5107397;28;20415;-94
2023/09/08 04:27:41;;;;;;;12.73;6.38;;;;;;;22.84;68.83;98773.97;5109866;28;20497;-96
2023/09/08 04:30:08;;;;;;;8.57;6.13;;;;;;;22.56;69.19;98725.44;5106693;28;20139;-96
2023/09/08 04:32:34;;;;;;;9.82;7.15;;;;;;;22.75;69.00;98760.13;5107760;28;20443;-94
2023/09/08 04:35:03;;;;;;;7.75;5.65;;;;;;;22.34;69.71;98717.25;5110257;28;20081;-96
2023/09/08 04:37:30;;;;;;;11.95;6.32;;;;;;;22.15;70.38;98720.44;5112774;28;20035;-96
2023/09/08 04:39:56;;;;;;;8.98;5.72;;;;;;;22.30;69.75;98735.56;5108427;28;20576;-95
2023/09/08 04:42:23;;;;;;;10.23;6.10;;;;;;;22.38;70.24;98744.94;5109468;28;20067;-95
2023/09/08 04:44:49;;;;;;;8.00;5.60;;;;;;;22.15;70.49;98731.28;5108940;28;20032;-95
2023/09/08 04:47:15;;;;;;;9.93;6.55;;;;;;;22.28;70.37;98750.22;5107511;28;20043;-96
2023/09/08 04:49:41;;;;;;;7.00;5.35;;;;;;;22.41;69.74;98731.19;5106465;28;20131;-95
2023/09/08 04:52:08;;;;;;;10.55;6.40;;;;;;;22.47;69.29;98730.72;5108148;28;20514;-95
2023/09/08 04:54:34;;;;;;;7.90;6.68;;;;;;;22.43;70.45;98778.84;5106553;28;20047;-94
2023/09/08 04:57:02;;;;;;;10.65;6.40;;;;;;;22.63;68.94;98752.06;5126746;27;20088;-94
2023/09/08 04:59:28;;;;;;;9.10;6.00;;;;;;;22.60;69.16;98742.34;5132606;27;20035;-95
2023/09/08 05:01:54;;;;;;;9.23;6.57;;;;;;;22.67;70.06;98807.78;5128418;27;20515;-95
2023/09/08 05:04:21;;;;;;;7.82;6.22;;;;;;;22.46;70.23;98767.75;5128209;27;20142;-95
2023/09/08 05:06:47;;;;;;;9.50;5.97;;;;;;;22.33;70.48;98748.00;5127166;27;20039;-95
2023/09/08 05:09:15;;;;;;;8.18;6.07;;;;;;;22.69;69.63;98774.16;5128450;27;20035;-95
2023/09/08 05:11:41;;;;;;;11.18;5.82;;;;;;;22.69;69.10;98751.59;5128168;27;20062;-96
2023/09/08 05:14:07;;;;;;;11.95;6.47;;;;;;;22.70;68.87;98753.31;5128295;27;20096;-96
2023/09/08 05:16:39;;;;;;;12.05;5.97;;;;;;;22.53;70.01;98754.59;5128193;27;20051;-96
2023/09/08 05:19:06;;;;;;;11.45;6.07;;;;;;;22.53;70.04;98790.72;5128908;27;20059;-95
2023/09/08 05:21:33;;;;;;;9.40;5.80;;;;;;;22.45;69.18;98748.94;5128365;27;20027;-96
2023/09/08 05:23:59;;;;;;;11.35;6.18;;;;;;;22.38;70.47;98750.34;5128092;27;20107;-95
2023/09/08 05:26:27;;;;;;;7.85;5.32;;;;;;;22.48;70.91;98760.38;5129980;27;20453;-96
2023/09/08 05:28:54;;;;;;;9.35;6.13;;;;;;;22.41;71.91;98794.34;5132406;27;20071;-96
2023/09/08 05:31:21;;;;;;;8.55;6.57;;;;;;;22.36;71.74;98815.53;5130427;27;20039;-95
2023/09/08 05:33:48;;;;;;;8.90;5.72;;;;;;;22.27;71.54;98759.31;5133669;27;20472;-95
2023/09/08 05:36:14;;;;;;;9.18;5.78;;;;;;;22.19;70.70;98761.72;5129093;27;20047;-94
2023/09/08 05:38:40;;;;;;;9.20;6.00;;;;;;;22.67;69.30;98756.28;5131595;28;20124;-96
2023/09/08 05:41:06;;;;;;;8.35;6.32;;;;;;;22.61;69.82;98775.72;5132313;27;20047;-95
2023/09/08 05:43:34;;;;;;;10.48;6.32;;;;;;;22.99;69.43;98827.00;5130282;27;20039;-95
2023/09/08 05:46:01;;;;;;;11.43;6.32;;;;;;;22.68;69.04;98766.97;5133297;27;20112;-96
2023/09/08 05:48:29;;;;;;;8.13;5.65;;;;;;;22.91;67.96;98756.22;5137463;27;20046;-96
2023/09/08 05:50:56;;;;;;;10.38;6.53;;;;;;;23.07;68.30;98767.59;5133304;27;20031;-95
2023/09/08 05:53:25;;;;;;;10.90;6.57;;;;;;;23.63;67.35;98818.38;5133904;27;20068;-96
2023/09/08 05:55:52;;;;;;;9.82;5.78;;;;;;;23.01;68.15;98768.13;5132116;27;20047;-96
2023/09/08 05:58:18;;;;;;;9.98;5.53;;;;;;;23.32;67.64;98769.25;5132911;27;20039;-95
2023/09/08 06:00:47;;;;;;;8.88;5.50;;;;;;;23.30;69.19;98840.91;5130468;27;20076;-96
2023/09/08 06:03:14;;;;;;;;;;;;;;;23.34;68.83;98839.69;5132882;27;20042;-96
2023/09/08 06:05:40;;;;;;;10.82;5.88;;;;;;;23.25;68.25;98770.75;5132643;28;19975;-96
2023/09/08 06:08:06;;;;;;;11.30;5.82;;;;;;;23.54;67.27;98767.53;5129798;28;20055;-95
2023/09/08 06:10:32;;;;;;;9.10;5.80;;;;;;;23.83;66.38;98824.06;5125989;28;20043;-95
2023/09/08 06:12:58;;;;;;;8.60;5.72;;;;;;;23.81;67.00;98837.75;5124654;28;20046;-96
2023/09/08 06:15:24;;;;;;;8.25;6.07;;;;;;;23.49;66.98;98794.19;5124735;28;20043;-93
2023/09/08 06:17:51;;;;;;;9.02;5.78;;;;;;;23.86;66.24;98786.69;5123432;27;20099;-94
2023/09/08 06:20:17;;;;;;;11.25;6.68;;;;;;;24.15;66.17;98826.88;5129188;27;20394;-95
2023/09/08 06:22:43;;;;;;;8.45;6.20;;;;;;;23.53;66.24;98791.09;5134268;27;20054;-95
2023/09/08 06:25:09;;;;;;;9.35;6.20;;;;;;;23.88;66.92;98809.16;5132454;27;20097;-94
2023/09/08 06:27:35;;;;;;;7.00;5.80;;;;;;;23.53;67.27;98774.81;5128433;27;20047;-95
2023/09/08 06:30:02;;;;;;;13.32;5.65;;;;;;;23.98;66.38;98829.16;5132848;27;20039;-92
2023/09/08 06:32:28;;;;;;;10.32;6.38;;;;;;;23.69;66.90;98800.72;5131313;27;20050;-95
2023/09/08 06:34:55;;;;;;;9.05;5.60;;;;;;;24.07;66.14;98810.34;5130174;27;20047;-94
2023/09/08 06:37:21;;;;;;;11.52;6.05;;;;;;;24.17;65.06;98806.75;5128511;27;20114;-95
2023/09/08 06:39:47;;;;;;;10.18;5.57;;;;;;;24.79;63.78;98834.28;5127112;27;20019;-94
2023/09/08 06:42:13;;;;;;;9.40;6.20;;;;;;;24.51;63.96;98831.16;5128137;27;20039;-95
2023/09/08 06:44:39;;;;;;;8.32;5.43;;;;;;;24.92;62.91;98829.50;5133393;27;20019;-95
2023/09/08 06:47:06;;;;;;;9.10;5.93;;;;;;;24.48;63.24;98812.38;5127937;27;20039;-95
2023/09/08 06:49:32;;;;;;;9.70;6.25;;;;;;;24.95;62.74;98810.19;5128215;27;20504;-95
2023/09/08 06:52:00;;;;;;;9.15;5.47;;;;;;;25.07;61.78;98804.69;5126793;27;20057;-95
2023/09/08 06:54:26;;;;;;;8.68;5.50;;;;;;;25.20;61.84;98840.78;5128745;27;20062;-96
2023/09/08 06:56:54;;;;;;;10.27;7.57;;;;;;;25.53;61.14;98825.22;5128528;27;20407;-95
2023/09/08 06:59:20;;;;;;;8.50;5.47;;;;;;;25.53;60.48;98839.69;5115699;27;20122;-96
2023/09/08 07:01:46;;;;;;;10.77;5.93;;;;;;;25.00;61.45;98797.09;5135225;27;20134;-96
2023/09/08 07:04:12;;;;;;;7.20;5.82;;;;;;;25.19;61.89;98820.84;5131723;27;20100;-95
2023/09/08 07:06:41;;;;;;;9.27;5.90;;;;;;;24.81;63.09;98783.34;5130475;27;20039;-95
2023/09/08 07:09:09;;;;;;;9.95;5.35;;;;;;;25.54;61.63;98841.41;5129044;27;20043;-96
2023/09/08 07:11:34;;;;;;;7.85;6.53;;;;;;;25.09;63.35;98859.84;5129059;27;20047;-94
2023/09/08 07:14:00;;;;;;;6.95;4.78;;;;;;;25.54;61.10;98825.06;5127716;27;20126;-95
2023/09/08 07:16:27;;;;;;;8.90;5.70;;;;;;;25.36;61.07;98794.03;5125613;27;20035;-93
2023/09/08 07:18:52;;;;;;;8.18;5.07;;;;;;;25.33;62.52;98811.50;5128884;27;20058;-95
2023/09/08 07:21:18;;;;;;;9.52;5.45;;;;;;;25.45;60.96;98803.25;5124988;27;20047;-96
2023/09/08 07:23:45;;;;;;;10.82;6.00;;;;;;;25.31;61.49;98808.06;5129339;27;20066;-96
2023/09/08 07:26:12;;;;;;;8.80;6.20;;;;;;;25.74;60.92;98856.00;5127866;27;20046;-94
2023/09/08 07:28:39;;;;;;;9.23;6.45;;;;;;;26.03;59.60;98841.69;5127813;27;20035;-95
2023/09/08 07:31:08;;;;;;;8.40;5.15;;;;;;;25.99;57.98;98834.78;5127797;27;20043;-95
2023/09/08 07:33:35;;;;;;;9.32;5.55;;;;;;;25.69;59.31;98805.66;5127578;27;20133;-96
2023/09/08 07:36:04;;;;;;;9.63;6.78;;;;;;;26.16;56.98;98798.69;5128487;27;20397;-95
2023/09/08 07:38:30;;;;;;;13.52;5.35;;;;;;;25.83;58.30;98795.25;5129922;27;20035;-94
2023/09/08 07:40:56;;;;;;;9.65;5.88;;;;;;;26.02;58.28;98810.84;5130619;27;20180;-95
2023/09/08 07:43:23;;;;;;;8.75;6.13;;;;;;;25.44;59.11;98802.41;5131256;27;20039;-95
2023/09/08 07:45:53;;;;;;;9.18;5.45;;;;;;;26.44;57.32;98824.28;5129811;27;20049;-95
2023/09/08 07:48:18;;;;;;;;;;;;;;;26.43;57.30;98870.78;5130013;27;20035;-96
2023/09/08 07:50:44;;;;;;;8.60;5.22;;;;;;;26.13;57.22;98812.59;5126824;27;20006;-93
2023/09/08 07:53:10;;;;;;;10.80;6.65;;;;;;;26.10;57.84;98839.25;5127832;27;20047;-94
2023/09/08 07:55:38;;;;;;;7.60;5.47;;;;;;;26.90;57.12;98834.69;5128357;27;20023;-95
2023/09/08 07:58:04;;;;;;;8.25;5.13;;;;;;;27.13;55.83;98838.84;5125091;27;20076;-94
2023/09/08 08:00:32;;;;;;;7.53;5.30;;;;;;;26.93;55.75;98815.28;5125001;27;20142;-94
2023/09/08 08:02:58;;;;;;;10.05;5.75;;;;;;;26.99;56.74;98834.66;5107498;28;20476;-94
2023/09/08 08:05:25;;;;;;;8.80;5.65;;;;;;;27.45;54.14;98810.34;5080380;28;20052;-94
2023/09/08 08:07:51;;;;;;;9.88;6.32;;;;;;;26.86;55.25;98816.88;5081145;28;20139;-94
2023/09/08 08:10:19;;;;;;;11.60;6.13;;;;;;;27.08;54.86;98804.78;5087301;28;20045;-95
2023/09/08 08:12:45;;;;;;;7.38;5.15;;;;;;;27.69;52.35;98808.97;5106005;28;20044;-96
2023/09/08 08:15:11;;;;;;;8.75;5.28;;;;;;;27.01;55.28;98801.78;5106910;28;20116;-93
2023/09/08 08:17:39;;;;;;;7.40;6.55;;;;;;;27.99;53.71;98805.16;5103427;28;20436;-95
2023/09/08 08:20:08;;;;;;;7.47;5.43;;;;;;;27.75;54.00;98872.09;5099860;28;20036;-94
2023/09/08 08:22:35;;;;;;;10.77;6.68;;;;;;;27.87;53.31;98826.34;5104912;28;20456;-94
2023/09/08 08:25:01;;;;;;;9.23;5.53;;;;;;;28.06;53.24;98822.66;5103819;28;20101;-95
2023/09/08 08:27:27;;;;;;;9.02;5.43;;;;;;;28.20;51.42;98863.16;5101769;28;20067;-94
2023/09/08 08:29:54;;;;;;;9.30;5.38;;;;;;;27.93;50.70;98847.59;5103884;28;20040;-96
2023/09/08 08:32:20;;;;;;;7.90;5.43;;;;;;;28.29;50.11;98817.63;5103770;28;20047;-95
2023/09/08 08:34:47;;;;;;;10.45;5.50;;;;;;;28.11;50.08;98846.81;5103971;28;20040;-93
2023/09/08 08:37:13;;;;;;;14.93;5.75;;;;;;;28.36;49.07;98831.56;5100419;28;20071;-94
2023/09/08 08:39:39;;;;;;;9.57;5.18;;;;;;;28.50;48.62;98842.03;5105813;28;20036;-92
2023/09/08 08:42:07;;;;;;;8.60;5.05;;;;;;;28.50;47.89;98828.34;5100134;28;20134;-94
2023/09/08 08:44:34;;;;;;;7.47;4.97;;;;;;;27.89;51.50;98810.66;5102584;28;20036;-94
2023/09/08 08:47:02;;;;;;;9.77;5.40;;;;;;;28.22;51.46;98813.81;5102907;28;20493;-93
2023/09/08 08:49:30;;;;;;;7.78;5.10;;;;;;;28.07;50.58;98824.38;5103414;28;20032;-94
2023/09/08 08:51:58;;;;;;;7.65;5.38;;;;;;;28.19;49.31;98823.19;5100780;28;20039;-95
2023/09/08 08:54:24;;;;;;;11.55;5.05;;;;;;;28.48;49.77;98846.78;5101598;28;20044;-93
2023/09/08 08:56:51;;;;;;;9.18;5.25;;;;;;;28.25;48.04;98833.47;5103300;28;20040;-95
2023/09/08 08:59:18;;;;;;;8.30;5.28;;;;;;;28.58;47.15;98844.84;5101889;28;20040;-94
2023/09/08 09:01:44;;;;;;;7.68;4.60;;;;;;;28.71;45.76;98830.75;5107190;28;20924;-95
2023/09/08 09:04:10;;;;;;;7.32;4.72;;;;;;;28.55;44.65;98838.81;5103247;28;20048;-94
2023/09/08 09:06:36;;;;;;;6.13;4.47;;;;;;;28.42;45.65;98836.41;5103702;28;20085;-93
2023/09/08 09:09:05;;;;;;;6.22;4.57;;;;;;;28.95;45.03;98870.34;5097973;28;20512;-94
2023/09/08 09:11:31;;;;;;;6.70;4.68;;;;;;;28.66;46.74;98861.34;5104894;28;20131;-93
2023/09/08 09:13:58;;;;;;;9.52;4.75;;;;;;;28.88;44.64;98848.22;5100840;28;20020;-95
2023/09/08 09:16:24;;;;;;;8.35;4.60;;;;;;;28.95;45.83;98849.31;5102407;28;20046;-93
2023/09/08 09:18:57;;;;;;;6.65;5.15;;;;;;;28.52;45.71;98834.53;5101968;28;20044;-94
2023/09/08 09:21:23;;;;;;;7.32;4.40;;;;;;;29.73;44.21;98853.22;5101252;28;20047;-94
2023/09/08 09:23:49;;;;;;;7.45;4.70;;;;;;;29.26;42.74;98803.22;5101139;28;20033;-94
2023/09/08 09:26:25;;;;;;;8.55;5.05;;;;;;;29.89;41.47;98828.66;5100380;28;20085;-91
2023/09/08 09:28:53;;;;;;;6.63;4.88;;;;;;;28.88;42.31;98815.38;5102997;28;20050;-95
2023/09/08 09:31:24;;;;;;;5.05;3.75;;;;;;;29.47;41.98;98840.34;5100509;28;20064;-95
2023/09/08 09:34:04;;;;;;;7.85;4.53;;;;;;;29.58;41.20;98840.09;5103951;28;20036;-96
2023/09/08 09:36:30;;;;;;;8.85;4.75;;;;;;;29.49;41.65;98805.44;5103656;28;20099;-93
2023/09/08 09:38:59;;;;;;;6.15;5.55;;;;;;;28.30;43.50;98810.28;5101472;28;20128;-96
2023/09/08 09:41:28;;;;;;;6.18;4.70;;;;;;;29.76;40.71;98811.81;5102416;28;20040;-96
2023/09/08 09:43:54;;;;;;;6.88;4.60;;;;;;;30.26;40.53;98813.72;5101027;28;20092;-95
2023/09/08 09:46:21;;;;;;;5.75;4.30;;;;;;;30.35;37.87;98823.72;5099980;28;20048;-95
2023/09/08 09:48:52;;;;;;;6.18;4.60;;;;;;;30.27;37.62;98807.19;5098317;28;20059;-94
2023/09/08 09:51:19;;;;;;;7.32;4.80;;;;;;;29.96;37.18;98796.81;5099204;28;20036;-93
2023/09/08 09:53:48;;;;;;;8.38;5.13;;;;;;;30.02;36.23;98785.19;5096866;28;20067;-95
2023/09/08 09:56:17;;;;;;;7.85;4.72;;;;;;;29.93;35.91;98794.41;5097115;28;20119;-93
2023/09/08 09:58:44;;;;;;;6.18;4.55;;;;;;;30.55;35.71;98817.94;5097393;28;20032;-95
2023/09/08 10:01:11;;;;;;;8.82;4.63;;;;;;;30.12;35.37;98796.00;5094714;28;20051;-95
2023/09/08 10:03:39;;;;;;;8.80;5.10;;;;;;;30.44;36.51;98814.50;5122793;27;20030;-94
2023/09/08 10:06:06;;;;;;;5.53;4.50;;;;;;;30.71;35.93;98846.31;5124185;28;20077;-94
2023/09/08 10:08:37;;;;;;;7.25;4.55;;;;;;;30.37;36.66;98798.88;5121806;28;20074;-94
2023/09/08 10:11:06;;;;;;;6.50;5.75;;;;;;;30.42;37.31;98824.78;5119943;28;20502;-95
2023/09/08 10:13:36;;;;;;;;;;;;;;;30.58;37.23;98850.53;5121046;28;20436;-95
2023/09/08 10:16:05;;;;;;;6.75;5.53;;;;;;;30.71;37.54;98796.03;5119489;28;20258;-96
2023/09/08 10:18:34;;;;;;;6.90;4.53;;;;;;;30.14;36.05;98804.06;5123511;28;20032;-95
2023/09/08 10:21:04;;;;;;;5.63;5.00;;;;;;;30.74;34.58;98822.28;5121317;28;20492;-95
2023/09/08 10:23:36;;;;;;;8.68;4.82;;;;;;;30.82;35.52;98792.09;5123726;28;20035;-95
2023/09/08 10:26:05;;;;;;;6.07;4.80;;;;;;;30.42;34.47;98801.97;5121313;28;20043;-94
2023/09/08 10:28:31;;;;;;;;;;;;;;;30.93;35.83;98840.38;5125737;28;20035;-96
2023/09/08 10:30:58;;;;;;;6.90;5.13;;;;;;;30.15;35.93;98775.66;5121875;28;20123;-93
2023/09/08 10:33:26;;;;;;;9.25;5.20;;;;;;;30.60;35.75;98810.06;5122691;28;20046;-92
2023/09/08 10:35:53;;;;;;;6.70;4.90;;;;;;;30.38;36.10;98808.81;5123635;28;20039;-95
2023/09/08 10:38:24;;;;;;;6.38;5.15;;;;;;;30.02;35.98;98787.94;5123456;28;20023;-95
2023/09/08 10:40:49;;;;;;;7.47;5.03;;;;;;;30.42;35.04;98822.03;5118852;28;20099;-94
2023/09/08 10:43:15;;;;;;;7.93;4.65;;;;;;;30.32;35.24;98785.66;5120226;28;20492;-94
2023/09/08 10:45:42;;;;;;;6.13;4.82;;;;;;;30.45;35.31;98815.38;5115611;28;20042;-95
2023/09/08 10:48:09;;;;;;;7.10;4.90;;;;;;;29.79;35.37;98790.38;5125337;28;20080;-95
2023/09/08 10:50:41;;;;;;;8.10;4.82;;;;;;;30.66;35.85;98832.19;5121685;28;20040;-95
2023/09/08 10:53:10;;;;;;;6.03;5.20;;;;;;;30.39;35.76;98797.69;5121342;28;20035;-94
2023/09/08 10:55:43;;;;;;;6.90;5.32;;;;;;;30.34;35.56;98785.47;5122853;27;20122;-93
2023/09/08 10:58:10;;;;;;;6.97;6.28;;;;;;;30.40;35.24;98788.41;5124161;28;20393;-94
2023/09/08 11:00:44;;;;;;;7.40;4.93;;;;;;;30.17;36.14;98814.72;5120616;28;20065;-92
2023/09/08 11:03:11;;;;;;;6.88;5.60;;;;;;;29.65;37.31;98764.44;5120985;28;20146;-96
2023/09/08 11:05:38;;;;;;;8.15;5.32;;;;;;;30.79;35.84;98804.25;5123099;27;20096;-94
2023/09/08 11:08:05;;;;;;;7.10;5.35;;;;;;;30.76;36.10;98801.00;5125170;27;20037;-95
2023/09/08 11:10:32;;;;;;;6.35;4.95;;;;;;;30.11;36.46;98783.34;5135890;27;20038;-95
2023/09/08 11:12:59;;;;;;;10.60;6.60;;;;;;;30.24;36.42;98802.91;5126282;27;20035;-94
2023/09/08 11:15:25;;;;;;;7.00;4.82;;;;;;;30.57;36.41;98815.91;5127199;27;20035;-93
2023/09/08 11:17:51;;;;;;;8.35;5.10;;;;;;;30.27;36.80;98766.06;5127246;27;20080;-94
2023/09/08 11:20:26;;;;;;;6.90;4.80;;;;;;;30.46;36.96;98765.78;5135612;27;20035;-95
2023/09/08 11:22:54;;;;;;;7.35;5.40;;;;;;;30.18;36.85;98813.69;5128928;27;20111;-94
2023/09/08 11:25:20;;;;;;;6.25;4.72;;;;;;;30.06;36.76;98792.06;5143044;27;20139;-93
2023/09/08 11:27:50;;;;;;;6.60;5.90;;;;;;;29.16;38.04;98775.06;5125666;27;20487;-94
2023/09/08 11:30:15;;;;;;;8.00;5.88;;;;;;;28.91;38.18;98778.59;5127497;27;20060;-91
2023/09/08 11:32:41;;;;;;;7.35;5.43;;;;;;;29.13;37.70;98737.06;5121446;27;20430;-94